createdAt,value
2019-06-07T00:00:51.625Z,99681.65
2019-06-07T00:03:27.612Z,99676.45
2019-06-07T00:05:52.152Z,99677.69
2019-06-07T00:08:28.054Z,99671.91
2019-06-07T00:10:52.711Z,99672.87
2019-06-07T00:13:22.058Z,99668.34
2019-06-07T00:15:51.483Z,99676.48
2019-06-07T00:18:25.703Z,99672.70
2019-06-07T00:20:51.946Z,99671.16
2019-06-07T00:23:22.934Z,99666.56
2019-06-07T00:25:52.497Z,99671.88
2019-06-07T00:28:21.903Z,99665.17
2019-06-07T00:30:52.669Z,99661.55
2019-06-07T00:33:24.843Z,99668.72
2019-06-07T00:35:53.355Z,99677.08
2019-06-07T00:38:22.831Z,99673.86
2019-06-07T00:40:52.182Z,99677.51
2019-06-07T00:43:27.944Z,99670.11
2019-06-07T00:45:52.678Z,99669.83
2019-06-07T00:48:30.823Z,99667.57
2019-06-07T00:50:53.158Z,99672.95
2019-06-07T00:53:31.664Z,99673.60
2019-06-07T00:55:53.641Z,99676.33
2019-06-07T00:58:27.523Z,99676.38
2019-06-07T01:00:54.162Z,99679.44
2019-06-07T01:03:25.671Z,99675.01
2019-06-07T01:05:54.556Z,99684.98
2019-06-07T01:08:28.266Z,99677.96
2019-06-07T01:10:55.086Z,99685.49
2019-06-07T01:13:26.757Z,99679.66
2019-06-07T01:15:55.741Z,99680.13
2019-06-07T01:18:37.329Z,99693.95
2019-06-07T01:20:56.192Z,99689.30
2019-06-07T01:23:59.870Z,99694.84
2019-06-07T01:25:56.815Z,99694.20
2019-06-07T01:28:27.100Z,99683.13
2019-06-07T01:30:57.355Z,99679.43
2019-06-07T01:33:49.309Z,99682.80
2019-06-07T01:35:57.868Z,99679.61
2019-06-07T01:38:29.809Z,99686.52
2019-06-07T01:40:58.353Z,99693.81
2019-06-07T01:43:29.128Z,99685.62
2019-06-07T01:45:58.811Z,99689.83
2019-06-07T01:48:48.178Z,99692.59
2019-06-07T01:50:59.221Z,99695.09
2019-06-07T01:53:31.385Z,99691.00
2019-06-07T01:55:59.720Z,99701.13
2019-06-07T01:58:29.282Z,99700.41
2019-06-07T02:00:58.643Z,99698.14
2019-06-07T02:03:32.166Z,99702.99
2019-06-07T02:05:59.254Z,99704.05
2019-06-07T02:08:34.092Z,99699.01
2019-06-07T02:10:59.755Z,99705.09
2019-06-07T02:13:30.735Z,99705.02
2019-06-07T02:16:00.313Z,99700.92
2019-06-07T02:18:34.373Z,99700.61
2019-06-07T02:21:00.771Z,99703.53
2019-06-07T02:23:31.660Z,99692.75
2019-06-07T02:26:01.299Z,99696.59
2019-06-07T02:28:44.384Z,99697.77
2019-06-07T02:31:01.802Z,99701.75
2019-06-07T02:33:39.616Z,99702.80
2019-06-07T02:36:02.266Z,99697.72
2019-06-07T02:38:37.163Z,99706.05
2019-06-07T02:41:02.879Z,99703.75
2019-06-07T02:43:36.237Z,99709.89
2019-06-07T02:46:24.052Z,99712.11
2019-06-07T02:48:39.851Z,99708.84
2019-06-07T02:51:05.633Z,99707.90
2019-06-07T02:53:40.070Z,99711.99
2019-06-07T02:56:37.249Z,99715.97
2019-06-07T02:58:41.550Z,99719.84
2019-06-07T03:01:09.919Z,99723.21
2019-06-07T03:03:40.209Z,99726.59
2019-06-07T03:06:11.225Z,99734.30
2019-06-07T03:08:42.865Z,99739.34
2019-06-07T03:11:14.127Z,99741.13
2019-06-07T03:13:46.728Z,99750.66
2019-06-07T03:16:24.480Z,99748.98
2019-06-07T03:18:57.553Z,99757.94
2019-06-07T03:21:29.469Z,99758.54
2019-06-07T03:23:59.874Z,99762.52
2019-06-07T03:26:31.318Z,99762.37
2019-06-07T03:29:00.894Z,99765.64
2019-06-07T03:31:35.324Z,99764.19
2019-06-07T03:34:01.413Z,99774.23
2019-06-07T03:36:32.136Z,99769.38
2019-06-07T03:39:01.715Z,99769.38
2019-06-07T03:41:36.795Z,99775.58
2019-06-07T03:44:02.168Z,99780.59
2019-06-07T03:46:36.223Z,99786.83
2019-06-07T03:49:02.957Z,99796.84
2019-06-07T03:51:34.875Z,99791.39
2019-06-07T03:54:03.511Z,99787.62
2019-06-07T03:56:33.754Z,99787.45
2019-06-07T03:59:04.125Z,99793.42
2019-06-07T04:01:34.831Z,99793.42
2019-06-07T04:04:04.638Z,99792.33
2019-06-07T04:06:36.181Z,99788.02
2019-06-07T04:09:06.746Z,99788.46
2019-06-07T04:11:39.429Z,99775.66
2019-06-07T04:14:07.284Z,99777.61
2019-06-07T04:16:40.852Z,99778.63
2019-06-07T04:19:07.795Z,99778.63
2019-06-07T04:21:41.998Z,99793.97
2019-06-07T04:24:08.276Z,99787.77
2019-06-07T04:26:43.272Z,99789.41
2019-06-07T04:29:32.299Z,99789.41
2019-06-07T04:31:42.920Z,99784.06
2019-06-07T04:34:11.056Z,99783.73
2019-06-07T04:36:55.808Z,99782.77
2019-06-07T04:39:12.526Z,99782.77
2019-06-07T04:41:43.810Z,99785.66
2019-06-07T04:44:15.019Z,99797.29
2019-06-07T04:46:47.264Z,99792.28
2019-06-07T04:49:41.143Z,99792.28
2019-06-07T04:52:08.438Z,99786.34
2019-06-07T04:54:40.626Z,99786.34
2019-06-07T04:57:08.939Z,99785.80
2019-06-07T05:02:09.429Z,99794.00
2019-06-07T05:04:41.631Z,99796.99
2019-06-07T05:07:10.065Z,99801.73
2019-06-07T05:09:42.936Z,99801.73
2019-06-07T05:12:10.324Z,99804.20
2019-06-07T05:14:42.395Z,99804.20
2019-06-07T05:17:10.893Z,99814.20
2019-06-07T05:19:44.131Z,99814.20
2019-06-07T05:22:11.407Z,99812.21
2019-06-07T05:24:41.577Z,99812.21
2019-06-07T05:27:11.945Z,99814.92
2019-06-07T05:29:43.839Z,99814.92
2019-06-07T05:32:13.083Z,99821.45
2019-06-07T05:34:46.967Z,99818.58
2019-06-07T05:37:13.506Z,99812.44
2019-06-07T05:39:46.295Z,99812.44
2019-06-07T05:42:13.737Z,99815.79
2019-06-07T05:44:45.476Z,99828.52
2019-06-07T05:47:13.862Z,99831.56
2019-06-07T05:49:46.387Z,99830.56
2019-06-07T05:52:13.826Z,99829.91
2019-06-07T05:54:45.511Z,99827.86
2019-06-07T05:57:14.317Z,99824.53
2019-06-07T05:59:46.753Z,99821.66
2019-06-07T06:02:22.801Z,99815.76
2019-06-07T06:04:49.003Z,99824.41
2019-06-07T06:07:16.475Z,99824.41
2019-06-07T06:09:46.163Z,99825.94
2019-06-07T06:12:33.542Z,99826.09
2019-06-07T06:14:47.176Z,99826.16
2019-06-07T06:17:16.418Z,99824.96
2019-06-07T06:19:49.644Z,99829.44
2019-06-07T06:22:16.331Z,99829.23
2019-06-07T06:25:24.332Z,99825.97
2019-06-07T06:27:55.638Z,99833.05
2019-06-07T06:29:50.448Z,99830.61
2019-06-07T06:34:50.669Z,99827.27
2019-06-07T06:37:19.576Z,99829.27
2019-06-07T06:39:50.116Z,99834.19
2019-06-07T06:42:19.530Z,99831.72
2019-06-07T06:44:52.274Z,99831.94
2019-06-07T06:47:19.601Z,99828.73
2019-06-07T06:49:50.145Z,99829.34
2019-06-07T06:52:19.626Z,99829.81
2019-06-07T06:54:59.349Z,99826.96
2019-06-07T06:57:20.487Z,99841.19
2019-06-07T06:59:52.525Z,99842.33
2019-06-07T07:02:20.574Z,99836.58
2019-06-07T07:04:53.528Z,99843.98
2019-06-07T07:07:20.745Z,99841.64
2019-06-07T07:09:54.741Z,99842.09
2019-06-07T07:12:20.956Z,99852.93
2019-06-07T07:14:55.148Z,99853.17
2019-06-07T07:17:44.729Z,99856.20
2019-06-07T07:19:53.073Z,99857.57
2019-06-07T07:22:22.403Z,99853.97
2019-06-07T07:24:53.396Z,99852.57
2019-06-07T07:27:22.279Z,99854.16
2019-06-07T07:30:10.291Z,99856.37
2019-06-07T07:32:22.220Z,99848.41
2019-06-07T07:34:54.505Z,99848.95
2019-06-07T07:37:22.134Z,99852.73
2019-06-07T07:40:00.708Z,99853.48
2019-06-07T07:42:22.134Z,99856.85
2019-06-07T07:44:53.727Z,99857.05
2019-06-07T07:47:22.149Z,99847.63
2019-06-07T07:49:53.041Z,99856.63
2019-06-07T07:52:22.085Z,99855.14
2019-06-07T07:54:52.853Z,99855.09
2019-06-07T07:57:22.000Z,99854.94
2019-06-07T08:00:08.309Z,99850.42
2019-06-07T08:02:21.845Z,99851.06
2019-06-07T08:05:16.555Z,99853.58
2019-06-07T08:07:21.669Z,99850.41
2019-06-07T08:09:55.669Z,99855.45
2019-06-07T08:12:21.541Z,99851.62
2019-06-07T08:14:53.533Z,99856.00
2019-06-07T08:17:21.489Z,99857.28
2019-06-07T08:19:52.268Z,99852.00
2019-06-07T08:22:21.383Z,99852.83
2019-06-07T08:24:53.172Z,99857.20
2019-06-07T08:27:26.236Z,99856.36
2019-06-07T08:30:10.221Z,99856.98
2019-06-07T08:32:24.403Z,99859.14
2019-06-07T08:34:59.751Z,99858.70
2019-06-07T08:38:13.364Z,99866.92
2019-06-07T08:39:56.752Z,99864.91
2019-06-07T08:42:36.909Z,99867.58
2019-06-07T08:45:02.963Z,99862.98
2019-06-07T08:47:27.410Z,99858.75
2019-06-07T08:50:01.483Z,99863.39
2019-06-07T08:52:27.314Z,99862.98
2019-06-07T08:54:57.846Z,99861.55
2019-06-07T08:57:27.159Z,99866.56
2019-06-07T08:59:59.872Z,99865.00
2019-06-07T09:02:27.030Z,99864.98
2019-06-07T09:04:59.274Z,99867.62
2019-06-07T09:07:26.923Z,99869.02
2019-06-07T09:10:03.584Z,99869.27
2019-06-07T09:12:26.830Z,99870.80
2019-06-07T09:15:06.233Z,99865.42
2019-06-07T09:17:26.689Z,99863.85
2019-06-07T09:19:58.202Z,99864.57
2019-06-07T09:22:26.516Z,99860.26
2019-06-07T09:25:02.829Z,99856.11
2019-06-07T09:27:27.459Z,99854.89
2019-06-07T09:30:03.200Z,99855.66
2019-06-07T09:32:27.968Z,99858.97
2019-06-07T09:35:03.911Z,99858.78
2019-06-07T09:40:09.735Z,99856.27
2019-06-07T09:42:29.494Z,99856.50
2019-06-07T09:45:01.192Z,99856.97
2019-06-07T09:47:32.847Z,99854.60
2019-06-07T09:50:08.343Z,99861.42
2019-06-07T09:52:31.417Z,99864.22
2019-06-07T09:55:12.042Z,99864.34
2019-06-07T09:57:31.248Z,99860.86
2019-06-07T10:00:04.023Z,99855.06
2019-06-07T10:02:31.118Z,99854.45
2019-06-07T10:05:02.560Z,99848.09
2019-06-07T10:07:32.141Z,99848.86
2019-06-07T10:12:32.118Z,99856.27
2019-06-07T10:15:01.202Z,99850.82
2019-06-07T10:17:30.307Z,99841.89
2019-06-07T10:20:00.474Z,99846.50
2019-06-07T10:22:30.159Z,99835.41
2019-06-07T10:24:59.699Z,99836.81
2019-06-07T10:27:28.973Z,99838.95
2019-06-07T10:29:58.021Z,99840.84
2019-06-07T10:32:27.076Z,99839.81
2019-06-07T10:34:56.169Z,99836.39
2019-06-07T10:37:25.289Z,99831.98
2019-06-07T10:39:54.349Z,99822.72
2019-06-07T10:42:23.407Z,99830.38
2019-06-07T10:44:52.457Z,99831.52
2019-06-07T10:47:21.542Z,99834.61
2019-06-07T10:49:50.595Z,99828.69
2019-06-07T10:52:19.640Z,99831.16
2019-06-07T10:54:48.801Z,99831.16
2019-06-07T10:57:17.855Z,99827.05
2019-06-07T10:59:46.899Z,99823.05
2019-06-07T11:02:16.005Z,99820.41
2019-06-07T11:04:45.122Z,99821.88
2019-06-07T11:07:14.522Z,99821.46
2019-06-07T11:09:43.728Z,99823.14
2019-06-07T11:12:12.842Z,99814.38
2019-06-07T11:14:41.870Z,99816.74
2019-06-07T11:17:11.306Z,99813.44
2019-06-07T11:19:40.452Z,99815.39
2019-06-07T11:22:10.209Z,99813.16
2019-06-07T11:24:39.330Z,99811.42
2019-06-07T11:27:09.645Z,99819.92
2019-06-07T11:29:39.189Z,99811.73
2019-06-07T11:32:08.454Z,99803.19
2019-06-07T11:34:37.484Z,99804.09
2019-06-07T11:37:07.355Z,99801.36
2019-06-07T11:39:37.400Z,99798.81
2019-06-07T11:42:07.898Z,99794.26
2019-06-07T11:44:37.117Z,99792.39
2019-06-07T11:47:06.495Z,99796.56
2019-06-07T11:49:35.616Z,99790.72
2019-06-07T11:52:04.664Z,99788.61
2019-06-07T11:54:33.733Z,99782.66
2019-06-07T11:57:02.916Z,99777.77
2019-06-07T11:59:31.971Z,99774.94
2019-06-07T12:02:01.017Z,99771.83
2019-06-07T12:04:34.898Z,99769.16
2019-06-07T12:07:00.973Z,99765.37
2019-06-07T12:09:30.002Z,99767.84
2019-06-07T12:11:59.056Z,99764.61
2019-06-07T12:14:28.116Z,99763.92
2019-06-07T12:16:57.163Z,99754.94
2019-06-07T12:19:26.233Z,99758.47
2019-06-07T12:21:55.350Z,99747.26
2019-06-07T12:24:24.422Z,99742.67
2019-06-07T12:26:53.483Z,99736.22
2019-06-07T12:29:22.538Z,99733.24
2019-06-07T12:31:51.605Z,99734.03
2019-06-07T12:34:21.669Z,99729.20
2019-06-07T12:36:50.967Z,99727.55
2019-06-07T12:39:20.163Z,99727.09
2019-06-07T12:41:49.242Z,99727.28
2019-06-07T12:44:18.660Z,99719.72
2019-06-07T12:46:47.735Z,99723.62
2019-06-07T12:49:17.086Z,99712.68
2019-06-07T12:51:46.114Z,99710.74
2019-06-07T12:54:15.457Z,99711.80
2019-06-07T12:56:44.716Z,99706.69
2019-06-07T12:59:13.959Z,99702.65
2019-06-07T13:01:43.061Z,99707.16
2019-06-07T13:04:12.255Z,99701.97
2019-06-07T13:06:41.425Z,99702.02
2019-06-07T13:09:10.472Z,99705.92
2019-06-07T13:11:39.564Z,99699.88
2019-06-07T13:14:08.606Z,99692.19
2019-06-07T13:16:37.696Z,99697.20
2019-06-07T13:19:06.748Z,99698.50
2019-06-07T13:21:35.781Z,99695.56
2019-06-07T13:24:05.015Z,99694.04
2019-06-07T13:26:34.061Z,99687.27
2019-06-07T13:29:03.148Z,99692.39
2019-06-07T13:31:32.223Z,99678.19
2019-06-07T13:34:01.292Z,99683.51
2019-06-07T13:36:30.307Z,99683.33
2019-06-07T13:38:59.386Z,99687.89
2019-06-07T13:41:40.559Z,99679.77
2019-06-07T13:43:59.219Z,99682.72
2019-06-07T13:46:28.316Z,99686.23
2019-06-07T13:48:57.366Z,99684.43
2019-06-07T13:51:27.027Z,99681.97
2019-06-07T13:53:57.193Z,99687.19
2019-06-07T13:56:26.328Z,99683.96
2019-06-07T13:58:55.465Z,99680.36
2019-06-07T14:01:24.695Z,99676.78
2019-06-07T14:03:53.719Z,99677.77
2019-06-07T14:06:23.506Z,99674.33
2019-06-07T14:08:52.642Z,99683.23
2019-06-07T14:11:21.683Z,99680.87
2019-06-07T14:13:50.772Z,99677.49
2019-06-07T14:16:20.087Z,99679.00
2019-06-07T14:18:49.142Z,99668.09
2019-06-07T14:21:18.274Z,99669.12
2019-06-07T14:23:49.275Z,99670.82
2019-06-07T14:26:18.115Z,99675.19
2019-06-07T14:28:47.173Z,99674.27
2019-06-07T14:31:16.220Z,99670.63
2019-06-07T14:33:45.412Z,99671.52
2019-06-07T14:36:14.482Z,99671.70
2019-06-07T14:38:43.524Z,99676.22
2019-06-07T14:41:12.612Z,99672.20
2019-06-07T14:43:41.983Z,99668.83
2019-06-07T14:46:11.481Z,99665.27
2019-06-07T14:48:40.602Z,99668.93
2019-06-07T14:51:09.661Z,99666.43
2019-06-07T14:53:38.726Z,99671.72
2019-06-07T14:56:07.783Z,99664.14
2019-06-07T14:58:42.750Z,99662.78
2019-06-07T15:01:07.625Z,99660.78
2019-06-07T15:03:36.836Z,99656.07
2019-06-07T15:06:05.883Z,99656.85
2019-06-07T15:08:35.059Z,99656.13
2019-06-07T15:11:04.082Z,99654.59
2019-06-07T15:13:33.637Z,99653.49
2019-06-07T15:16:02.940Z,99651.66
2019-06-07T15:18:31.996Z,99649.17
2019-06-07T15:21:01.066Z,99657.94
2019-06-07T15:23:31.113Z,99655.55
2019-06-07T15:26:00.304Z,99649.23
2019-06-07T15:28:30.187Z,99648.48
2019-06-07T15:30:59.470Z,99650.11
2019-06-07T15:33:29.640Z,99646.61
2019-06-07T15:35:58.786Z,99648.92
2019-06-07T15:38:28.968Z,99645.71
2019-06-07T15:40:58.249Z,99648.89
2019-06-07T15:43:27.297Z,99648.95
2019-06-07T15:45:56.439Z,99656.51
2019-06-07T15:48:25.527Z,99656.41
2019-06-07T15:50:54.645Z,99652.00
2019-06-07T15:53:23.780Z,99654.58
2019-06-07T15:55:52.906Z,99656.41
2019-06-07T15:58:21.975Z,99656.95
2019-06-07T16:00:51.034Z,99665.03
2019-06-07T16:03:20.157Z,99660.50
2019-06-07T16:05:49.301Z,99660.77
2019-06-07T16:08:18.353Z,99660.13
2019-06-07T16:10:47.467Z,99659.97
2019-06-07T16:13:16.565Z,99662.00
2019-06-07T16:15:45.622Z,99660.67
2019-06-07T16:18:14.774Z,99659.69
2019-06-07T16:20:44.129Z,99658.25
2019-06-07T16:23:13.234Z,99657.06
2019-06-07T16:25:42.416Z,99654.84
2019-06-07T16:28:11.598Z,99654.67
2019-06-07T16:30:40.757Z,99652.34
2019-06-07T16:33:09.827Z,99654.80
2019-06-07T16:35:39.076Z,99652.45
2019-06-07T16:38:08.284Z,99649.84
2019-06-07T16:40:38.402Z,99648.14
2019-06-07T16:43:16.616Z,99645.23
2019-06-07T16:45:38.717Z,99653.44
2019-06-07T16:48:07.796Z,99656.33
2019-06-07T16:50:36.933Z,99656.98
2019-06-07T16:53:06.151Z,99655.92
2019-06-07T16:55:36.399Z,99657.66
2019-06-07T16:58:05.642Z,99660.03
2019-06-07T17:00:34.898Z,99666.27
2019-06-07T17:03:04.470Z,99667.44
2019-06-07T17:05:33.537Z,99663.86
2019-06-07T17:08:02.680Z,99665.37
2019-06-07T17:10:31.800Z,99662.43
2019-06-07T17:13:00.900Z,99661.52
2019-06-07T17:15:30.016Z,99656.73
2019-06-07T17:17:59.054Z,99660.02
2019-06-07T17:20:28.177Z,99658.56
2019-06-07T17:22:57.319Z,99656.52
2019-06-07T17:25:26.470Z,99659.35
2019-06-07T17:27:55.564Z,99655.17
2019-06-07T17:30:24.618Z,99654.66
2019-06-07T17:32:58.976Z,99651.77
2019-06-07T17:35:24.569Z,99653.20
2019-06-07T17:37:53.638Z,99650.71
2019-06-07T17:40:23.030Z,99646.34
2019-06-07T17:42:52.077Z,99657.00
2019-06-07T17:45:21.234Z,99654.81
2019-06-07T17:47:51.956Z,99652.56
2019-06-07T17:50:22.410Z,99646.78
2019-06-07T17:52:52.096Z,99647.67
2019-06-07T17:55:21.395Z,99651.97
2019-06-07T17:57:50.929Z,99653.42
2019-06-07T18:00:29.034Z,99658.42
2019-06-07T18:02:52.963Z,99660.00
2019-06-07T18:05:22.386Z,99658.94
2019-06-07T18:07:53.876Z,99661.67
2019-06-07T18:10:34.564Z,99618.64
2019-06-07T18:13:03.621Z,99665.02
2019-06-07T18:15:44.497Z,99663.41
2019-06-07T18:18:13.845Z,99669.38
2019-06-07T18:20:43.313Z,99671.16
2019-06-07T18:23:12.938Z,99676.63
2019-06-07T18:25:42.085Z,99678.28
2019-06-07T18:28:11.641Z,99682.76
2019-06-07T18:30:40.777Z,99689.50
2019-06-07T18:33:09.885Z,99694.48
2019-06-07T18:35:38.932Z,99706.48
2019-06-07T18:38:10.739Z,99706.48
2019-06-07T18:40:38.897Z,99708.77
2019-06-07T18:43:07.950Z,99708.56
2019-06-07T18:45:37.106Z,99717.88
2019-06-07T18:48:06.842Z,99717.71
2019-06-07T18:50:36.512Z,99722.82
2019-06-07T18:53:05.743Z,99725.61
2019-06-07T18:55:34.867Z,99732.55
2019-06-07T18:58:04.443Z,99734.63
2019-06-07T19:00:34.007Z,99736.63
2019-06-07T19:03:03.447Z,99736.66
2019-06-07T19:05:32.884Z,99746.08
2019-06-07T19:08:02.076Z,99746.08
2019-06-07T19:10:32.019Z,99749.58
2019-06-07T19:13:01.367Z,99746.62
2019-06-07T19:15:30.645Z,99746.62
2019-06-07T19:18:00.978Z,99751.97
2019-06-07T19:20:31.789Z,99751.97
2019-06-07T19:23:01.219Z,99758.25
2019-06-07T19:25:30.390Z,99764.98
2019-06-07T19:28:01.102Z,99765.52
2019-06-07T19:30:30.530Z,99766.05
2019-06-07T19:33:01.572Z,99766.05
2019-06-07T19:35:30.806Z,99771.73
2019-06-07T19:38:00.103Z,99772.77
2019-06-07T19:40:29.686Z,99779.33
2019-06-07T19:42:59.269Z,99778.34
2019-06-07T19:45:31.529Z,99779.25
2019-06-07T19:48:01.017Z,99775.75
2019-06-07T19:50:30.605Z,99788.53
2019-06-07T19:53:01.189Z,99791.09
2019-06-07T19:55:30.808Z,99791.09
2019-06-07T19:57:59.994Z,99780.83
2019-06-07T20:00:29.221Z,99783.89
2019-06-07T20:02:59.963Z,99781.92
2019-06-07T20:05:29.136Z,99785.94
2019-06-07T20:07:58.541Z,99781.24
2019-06-07T20:10:27.812Z,99781.24
2019-06-07T20:12:58.559Z,99779.91
2019-06-07T20:15:29.599Z,99782.79
2019-06-07T20:17:59.321Z,99780.27
2019-06-07T20:20:30.092Z,99780.27
2019-06-07T20:23:00.958Z,99785.28
2019-06-07T20:25:30.460Z,99783.45
2019-06-07T20:28:01.384Z,99783.45
2019-06-07T20:30:30.954Z,99787.98
2019-06-07T20:33:01.738Z,99795.68
2019-06-07T20:35:31.389Z,99807.56
2019-06-07T20:38:01.087Z,99807.56
2019-06-07T20:40:30.679Z,99804.34
2019-06-07T20:43:01.433Z,99811.55
2019-06-07T20:45:33.912Z,99811.55
2019-06-07T20:48:02.179Z,99812.66
2019-06-07T20:50:31.491Z,99812.66
2019-06-07T20:53:01.709Z,99818.63
2019-06-07T20:55:32.095Z,99818.64
2019-06-07T20:58:03.583Z,99821.47
2019-06-07T21:00:32.619Z,99824.80
2019-06-07T21:03:03.248Z,99831.17
2019-06-07T21:05:32.734Z,99828.61
2019-06-07T21:08:03.757Z,99832.44
2019-06-07T21:10:33.349Z,99830.09
2019-06-07T21:13:03.886Z,99828.90
2019-06-07T21:15:47.923Z,99829.55
2019-06-07T21:18:09.616Z,99825.75
2019-06-07T21:20:35.870Z,99829.58
2019-06-07T21:23:05.267Z,99829.58
2019-06-07T21:25:34.686Z,99828.31
2019-06-07T21:28:05.177Z,99829.29
2019-06-07T21:30:34.706Z,99827.23
2019-06-07T21:33:05.447Z,99827.88
2019-06-07T21:35:34.857Z,99827.88
2019-06-07T21:38:05.971Z,99827.55
2019-06-07T21:40:35.457Z,99831.61
2019-06-07T21:43:06.254Z,99831.61
2019-06-07T21:45:35.826Z,99831.06
2019-06-07T21:48:07.030Z,99829.26
2019-06-07T21:50:36.407Z,99829.26
2019-06-07T21:53:06.571Z,99833.56
2019-06-07T21:55:36.205Z,99843.26
2019-06-07T21:58:06.956Z,99847.31
2019-06-07T22:00:43.703Z,99851.33
2019-06-07T22:03:13.547Z,99851.33
2019-06-07T22:05:43.108Z,99850.56
2019-06-07T22:08:12.569Z,99848.75
2019-06-07T22:10:41.926Z,99851.77
2019-06-07T22:13:12.179Z,99852.73
2019-06-07T22:15:41.728Z,99852.73
2019-06-07T22:18:12.866Z,99848.53
2019-06-07T22:20:42.370Z,99849.50
2019-06-07T22:23:12.739Z,99843.00
2019-06-07T22:25:42.180Z,99843.29
2019-06-07T22:28:12.807Z,99843.85
2019-06-07T22:30:42.352Z,99843.85
2019-06-07T22:33:13.377Z,99852.52
2019-06-07T22:35:43.017Z,99856.41
2019-06-07T22:38:12.370Z,99859.17
2019-06-07T22:40:41.795Z,99853.55
2019-06-07T22:43:11.824Z,99856.28
2019-06-07T22:45:41.344Z,99856.33
2019-06-07T22:48:11.372Z,99853.64
2019-06-07T22:50:40.886Z,99857.38
2019-06-07T22:53:11.358Z,99860.59
2019-06-07T22:55:42.436Z,99851.54
2019-06-07T22:58:12.108Z,99848.55
2019-06-07T23:00:41.594Z,99842.72
2019-06-07T23:03:12.565Z,99840.88
2019-06-07T23:05:42.101Z,99841.78
2019-06-07T23:08:12.956Z,99841.78
2019-06-07T23:10:42.548Z,99844.20
2019-06-07T23:13:11.964Z,99840.52
2019-06-07T23:15:41.382Z,99840.52
2019-06-07T23:18:11.405Z,99837.22
2019-06-07T23:20:40.934Z,99836.62
2019-06-07T23:23:10.352Z,99836.62
2019-06-07T23:25:39.721Z,99842.81
2019-06-07T23:28:10.198Z,99843.81
2019-06-07T23:30:39.762Z,99834.92
2019-06-07T23:33:09.251Z,99834.92
2019-06-07T23:35:39.786Z,99841.20
2019-06-07T23:38:09.201Z,99833.00
2019-06-07T23:40:38.630Z,99833.00
2019-06-07T23:43:07.976Z,99838.74
2019-06-07T23:45:37.362Z,99829.84
2019-06-07T23:48:06.775Z,99829.84
2019-06-07T23:50:36.190Z,99834.17
2019-06-07T23:53:07.371Z,99834.17
2019-06-07T23:55:36.769Z,99830.43
2019-06-07T23:58:06.180Z,99821.62
